sensor_id;sensor_type;location;lat;lon;timestamp;temperature;humidity
61351;DHT22;47119;49.130;9.218;2023-02-28T00:02:21;7.50;48.84
61351;DHT22;47119;49.130;9.218;2023-02-28T00:04:48;7.40;49.06
61351;DHT22;47119;49.130;9.218;2023-02-28T00:07:18;7.55;48.95
61351;DHT22;47119;49.130;9.218;2023-02-28T00:09:45;7.51;48.42
61351;DHT22;47119;49.130;9.218;2023-02-28T00:12:14;7.31;48.81
61351;DHT22;47119;49.130;9.218;2023-02-28T00:14:41;7.24;48.84
61351;DHT22;47119;49.130;9.218;2023-02-28T00:17:08;7.24;48.88
61351;DHT22;47119;49.130;9.218;2023-02-28T00:19:36;7.31;48.95
61351;DHT22;47119;49.130;9.218;2023-02-28T00:22:06;7.45;48.88
61351;DHT22;47119;49.130;9.218;2023-02-28T00:24:33;7.44;48.73
61351;DHT22;47119;49.130;9.218;2023-02-28T00:27:07;7.43;48.57
61351;DHT22;47119;49.130;9.218;2023-02-28T00:29:53;7.34;48.81
61351;DHT22;47119;49.130;9.218;2023-02-28T00:32:20;7.34;49.05
61351;DHT22;47119;49.130;9.218;2023-02-28T00:34:48;7.28;49.45
61351;DHT22;47119;49.130;9.218;2023-02-28T00:37:16;7.38;49.44
61351;DHT22;47119;49.130;9.218;2023-02-28T00:39:45;7.32;49.39
61351;DHT22;47119;49.130;9.218;2023-02-28T00:42:15;7.43;49.58
61351;DHT22;47119;49.130;9.218;2023-02-28T00:44:49;7.38;50.18
61351;DHT22;47119;49.130;9.218;2023-02-28T00:47:17;7.37;50.63
61351;DHT22;47119;49.130;9.218;2023-02-28T00:49:45;7.44;50.05
61351;DHT22;47119;49.130;9.218;2023-02-28T00:52:12;7.40;50.31
61351;DHT22;47119;49.130;9.218;2023-02-28T00:54:39;7.23;49.26
61351;DHT22;47119;49.130;9.218;2023-02-28T00:57:07;7.24;49.23
61351;DHT22;47119;49.130;9.218;2023-02-28T00:59:34;7.10;50.02
61351;DHT22;47119;49.130;9.218;2023-02-28T01:02:05;7.24;50.00
61351;DHT22;47119;49.130;9.218;2023-02-28T01:04:34;7.26;49.46
61351;DHT22;47119;49.130;9.218;2023-02-28T12:12:19;8.13;47.48
61351;DHT22;47119;49.130;9.218;2023-02-28T12:15:32;8.10;47.91
61351;DHT22;47119;49.130;9.218;2023-02-28T12:27:49;8.25;48.07
61351;DHT22;47119;49.130;9.218;2023-02-28T12:30:54;8.25;47.96
61351;DHT22;47119;49.130;9.218;2023-02-28T12:38:13;8.17;47.27
61351;DHT22;47119;49.130;9.218;2023-02-28T12:41:12;8.29;47.91
61351;DHT22;47119;49.130;9.218;2023-02-28T12:49:13;8.22;47.39
61351;DHT22;47119;49.130;9.218;2023-02-28T12:56:34;8.09;47.58
61351;DHT22;47119;49.130;9.218;2023-02-28T12:59:42;8.14;47.62
61351;DHT22;47119;49.130;9.218;2023-02-28T13:10:11;8.17;47.15
61351;DHT22;47119;49.130;9.218;2023-02-28T13:13:13;8.19;47.17
61351;DHT22;47119;49.130;9.218;2023-02-28T13:15:57;8.22;47.12
61351;DHT22;47119;49.130;9.218;2023-02-28T13:18:32;8.22;47.51
61351;DHT22;47119;49.130;9.218;2023-02-28T13:21:04;8.33;47.51
61351;DHT22;47119;49.130;9.218;2023-02-28T13:23:56;8.37;47.38
61351;DHT22;47119;49.130;9.218;2023-02-28T13:34:05;8.27;47.05
61351;DHT22;47119;49.130;9.218;2023-02-28T13:36:40;8.16;46.96
61351;DHT22;47119;49.130;9.218;2023-02-28T13:42:35;8.40;47.80
61351;DHT22;47119;49.130;9.218;2023-02-28T13:45:26;8.48;47.32
61351;DHT22;47119;49.130;9.218;2023-02-28T13:48:25;8.38;47.01
61351;DHT22;47119;49.130;9.218;2023-02-28T13:50:57;8.23;46.71
61351;DHT22;47119;49.130;9.218;2023-02-28T16:27:36;8.56;46.48
61351;DHT22;47119;49.130;9.218;2023-02-28T16:30:06;8.51;46.70
61351;DHT22;47119;49.130;9.218;2023-02-28T16:32:40;8.53;46.89
61351;DHT22;47119;49.130;9.218;2023-02-28T16:35:11;8.53;47.25
61351;DHT22;47119;49.130;9.218;2023-02-28T16:38:29;8.51;47.07
61351;DHT22;47119;49.130;9.218;2023-02-28T16:41:02;8.53;47.30
61351;DHT22;47119;49.130;9.218;2023-02-28T16:43:31;8.50;46.52
61351;DHT22;47119;49.130;9.218;2023-02-28T16:45:59;8.48;47.07
61351;DHT22;47119;49.130;9.218;2023-02-28T16:48:27;8.47;47.18
61351;DHT22;47119;49.130;9.218;2023-02-28T16:51:01;8.57;47.25
61351;DHT22;47119;49.130;9.218;2023-02-28T16:53:42;8.58;47.03
61351;DHT22;47119;49.130;9.218;2023-02-28T16:56:38;8.61;46.93
61351;DHT22;47119;49.130;9.218;2023-02-28T16:59:18;8.64;47.35
61351;DHT22;47119;49.130;9.218;2023-02-28T17:01:51;8.57;46.87
61351;DHT22;47119;49.130;9.218;2023-02-28T17:04:26;8.53;46.86
61351;DHT22;47119;49.130;9.218;2023-02-28T17:06:54;8.53;47.10
61351;DHT22;47119;49.130;9.218;2023-02-28T17:09:24;8.63;47.56
61351;DHT22;47119;49.130;9.218;2023-02-28T17:11:53;8.65;47.44
61351;DHT22;47119;49.130;9.218;2023-02-28T17:14:24;8.68;47.81
61351;DHT22;47119;49.130;9.218;2023-02-28T17:16:54;8.68;47.43
61351;DHT22;47119;49.130;9.218;2023-02-28T17:19:21;8.68;47.61
61351;DHT22;47119;49.130;9.218;2023-02-28T17:21:48;8.68;47.89
61351;DHT22;47119;49.130;9.218;2023-02-28T17:24:21;8.63;47.80
61351;DHT22;47119;49.130;9.218;2023-02-28T17:26:59;8.60;47.81
61351;DHT22;47119;49.130;9.218;2023-02-28T17:30:00;8.57;47.86
61351;DHT22;47119;49.130;9.218;2023-02-28T17:33:01;8.60;47.79
61351;DHT22;47119;49.130;9.218;2023-02-28T17:35:40;8.51;47.74
61351;DHT22;47119;49.130;9.218;2023-02-28T17:38:15;8.54;47.50
61351;DHT22;47119;49.130;9.218;2023-02-28T17:40:52;8.50;47.70
61351;DHT22;47119;49.130;9.218;2023-02-28T23:32:00;7.45;50.59
61351;DHT22;47119;49.130;9.218;2023-02-28T23:34:35;7.44;50.63
61351;DHT22;47119;49.130;9.218;2023-02-28T23:45:28;7.40;50.77
61351;DHT22;47119;49.130;9.218;2023-02-28T23:48:00;7.52;51.08
61351;DHT22;47119;49.130;9.218;2023-02-28T23:50:29;7.52;51.03
61351;DHT22;47119;49.130;9.218;2023-02-28T23:52:59;7.41;51.22
61351;DHT22;47119;49.130;9.218;2023-02-28T23:55:27;7.50;51.19
61351;DHT22;47119;49.130;9.218;2023-02-28T23:57:55;7.52;51.26
